Rechercher aéroport 
image banner adimage banner adimage banner ad
image banner ad

CL02 - Kilroy Airport Center

Situé à El Segundo, United States

ICAO - CL02, IATA -

Données fournies par Airmate  

Information générale

Coordonnées: N33°55'48" W118°23'6"
Élévation : 255 feet MSL.
Variation magnétique : 14° East
Voir autres Aéroports à California

Données opérationnelles

Special qualification required
Heure actuelle UTC:
Heure actuelle locale:
Météo à : KLAX - Los Angeles Intl ( 3 km )
METAR: KLAX 251453Z 32003KT 8SM BKN011 BKN220 OVC280 19/17 A2999 RMK AO2 SLP155 T01940167 53013 $
TAF: KLAX 251414Z 2514/2618 VRB05KT P6SM SCT010 BKN220 TEMPO 2514/2516 6SM BR BKN010 FM251800 25012KT P6SM FEW015 BKN120 FM260300 25007KT P6SM BKN012 OVC120 FM260900 VRB03KT P6SM VCSH OVC100
Voir NOTAMs / SUP AIP / TFR affectant cet aéroport [VIEW]
Fréquences de communication: [VIEW]

Pistes:

Coordonnées de l'aéroport

Adresse: El Segundo United States

Vue satellite de CL02